Time;durP1;ratioP1;P1;durP2;ratioP2;P2;SDS_P1;SDS_P2;PMS_P1;PMS_P2;Temp;Humidity;BMP_temperature;BMP_pressure;BME280_temperature;BME280_humidity;BME280_pressure;Samples;Min_cycle;Max_cycle;Signal;HPM_P1;HPM_P2
2023/12/13 00:01:38;;;;;;;1011.17;926.37;;;7.20;99.90;;;;;;5010579;28;20042;-77
2023/12/13 00:04:04;;;;;;;1023.13;937.63;;;7.20;99.90;;;;;;4994773;28;20053;-78
2023/12/13 00:06:30;;;;;;;1016.28;927.15;;;7.20;99.90;;;;;;4997659;28;20038;-77
2023/12/13 00:08:56;;;;;;;1054.73;959.77;;;7.20;99.90;;;;;;4993298;28;20041;-78
2023/12/13 00:11:22;;;;;;;995.38;908.70;;;7.20;99.90;;;;;;5010633;28;20404;-77
2023/12/13 00:13:48;;;;;;;1062.73;964.33;;;7.20;99.90;;;;;;5010348;28;20133;-77
2023/12/13 00:16:14;;;;;;;1057.07;962.40;;;7.20;99.90;;;;;;4990260;28;20073;-77
2023/12/13 00:18:40;;;;;;;959.65;880.30;;;7.10;99.90;;;;;;5009509;28;20046;-77
2023/12/13 00:21:06;;;;;;;1066.33;967.50;;;7.10;99.90;;;;;;5010717;28;20046;-78
2023/12/13 00:23:31;;;;;;;1039.07;944.28;;;7.10;99.90;;;;;;5010392;28;20053;-78
2023/12/13 00:25:57;;;;;;;996.03;915.57;;;7.10;99.90;;;;;;5010772;28;20045;-78
2023/12/13 00:28:23;;;;;;;990.70;909.53;;;7.10;99.90;;;;;;5009291;28;20103;-78
2023/12/13 00:30:49;;;;;;;1081.30;982.00;;;7.10;99.90;;;;;;4987947;28;20414;-77
2023/12/13 00:33:14;;;;;;;1012.23;928.10;;;7.10;99.90;;;;;;4993541;28;20046;-77
2023/12/13 00:35:40;;;;;;;1027.03;935.40;;;7.10;99.90;;;;;;5009724;28;20711;-77
2023/12/13 00:38:06;;;;;;;1058.27;965.30;;;7.10;99.90;;;;;;5009755;28;20050;-78
2023/12/13 00:40:31;;;;;;;1054.73;960.50;;;7.10;99.90;;;;;;4989434;28;20046;-78
2023/12/13 00:42:57;;;;;;;1044.70;951.10;;;7.10;99.90;;;;;;5000867;28;20484;-78
2023/12/13 00:45:23;;;;;;;1011.57;928.33;;;7.10;99.90;;;;;;4994116;28;20575;-78
2023/12/13 00:47:49;;;;;;;1028.33;939.00;;;7.10;99.90;;;;;;5009984;28;20050;-76
2023/12/13 00:50:15;;;;;;;1040.25;945.72;;;7.10;99.90;;;;;;5009534;28;20037;-78
2023/12/13 00:52:41;;;;;;;1029.50;938.67;;;7.10;99.90;;;;;;5009008;28;20042;-78
2023/12/13 00:55:07;;;;;;;1047.88;957.75;;;7.10;99.90;;;;;;5016981;28;20124;-78
2023/12/13 00:57:34;;;;;;;984.67;901.05;;;7.10;99.90;;;;;;5013172;28;20494;-78
2023/12/13 01:00:00;;;;;;;997.28;913.72;;;7.10;99.90;;;;;;5013816;28;20486;-78
2023/12/13 01:02:29;;;;;;;1030.82;936.70;;;7.10;99.90;;;;;;4995024;28;20038;-78
2023/12/13 01:04:54;;;;;;;1008.20;925.45;;;7.10;99.90;;;;;;4995397;28;20121;-77
2023/12/13 01:07:23;;;;;;;1025.87;938.87;;;7.00;99.90;;;;;;4996278;28;20470;-78
2023/12/13 01:09:49;;;;;;;1004.13;919.67;;;7.00;99.90;;;;;;5014220;28;20044;-78
2023/12/13 01:12:15;;;;;;;1003.22;917.70;;;7.00;99.90;;;;;;5011920;28;20771;-78
2023/12/13 01:14:41;;;;;;;1003.33;914.50;;;7.00;99.90;;;;;;5012890;28;20065;-76
2023/12/13 01:17:07;;;;;;;1030.20;941.33;;;7.00;99.90;;;;;;4996700;28;20553;-77
2023/12/13 01:19:33;;;;;;;1063.13;964.15;;;7.00;99.90;;;;;;4987834;28;20036;-77
2023/12/13 01:21:59;;;;;;;1016.43;928.40;;;7.00;99.90;;;;;;4992030;28;20042;-77
2023/12/13 01:24:25;;;;;;;1029.77;938.87;;;7.00;99.90;;;;;;5012624;28;20069;-77
2023/12/13 01:26:50;;;;;;;1028.40;939.00;;;7.00;99.90;;;;;;5011714;28;20049;-78
2023/12/13 01:29:16;;;;;;;1020.07;927.13;;;7.00;99.90;;;;;;4996490;28;20038;-77
2023/12/13 01:31:42;;;;;;;1002.20;918.60;;;7.00;99.90;;;;;;5012271;28;20057;-78
2023/12/13 01:34:07;;;;;;;1017.93;929.00;;;7.00;99.90;;;;;;5012058;28;20486;-77
2023/12/13 01:36:42;;;;;;;1032.43;939.47;;;7.00;99.90;;;;;;5011694;28;20038;-77
2023/12/13 01:39:08;;;;;;;996.85;916.65;;;7.00;99.90;;;;;;5011900;28;20034;-78
2023/12/13 01:41:36;;;;;;;1074.10;970.97;;;7.00;99.90;;;;;;5017739;28;20101;-76
2023/12/13 01:44:01;;;;;;;1031.85;938.22;;;7.00;99.90;;;;;;5001412;28;20490;-77
2023/12/13 01:46:30;;;;;;;1044.00;946.20;;;7.00;99.90;;;;;;5011746;28;20038;-77
2023/12/13 01:48:56;;;;;;;1033.93;940.85;;;7.00;99.90;;;;;;5003006;28;20097;-77
2023/12/13 01:51:22;;;;;;;1077.23;969.40;;;7.00;99.90;;;;;;5001930;28;20130;-77
2023/12/13 01:53:49;;;;;;;1059.10;958.45;;;7.00;99.90;;;;;;5012171;28;20041;-77
2023/12/13 01:56:15;;;;;;;1079.28;976.58;;;7.00;99.90;;;;;;4995279;28;20120;-77
2023/12/13 01:58:41;;;;;;;1062.30;957.47;;;7.00;99.90;;;;;;5012351;28;20037;-77
2023/12/13 02:01:10;;;;;;;1009.92;919.50;;;7.00;99.90;;;;;;5020357;28;20045;-76
2023/12/13 02:03:37;;;;;;;1070.30;968.55;;;7.00;99.90;;;;;;5002820;28;20081;-77
2023/12/13 02:06:04;;;;;;;1070.75;972.60;;;7.00;99.90;;;;;;5010581;28;20058;-77
2023/12/13 02:08:30;;;;;;;1044.15;948.70;;;7.00;99.90;;;;;;5011635;28;20068;-77
2023/12/13 02:10:58;;;;;;;1053.07;950.58;;;7.00;99.90;;;;;;5009600;28;20050;-77
2023/12/13 02:13:24;;;;;;;1024.50;931.65;;;7.00;99.90;;;;;;5011707;28;20037;-76
2023/12/13 02:15:50;;;;;;;1065.80;962.13;;;7.00;99.90;;;;;;4995490;28;20401;-77
2023/12/13 02:18:16;;;;;;;972.90;894.20;;;7.00;99.90;;;;;;5011071;28;20042;-77
2023/12/13 02:20:45;;;;;;;1040.25;949.28;;;7.00;99.90;;;;;;4995441;28;20042;-77
2023/12/13 02:23:11;;;;;;;1008.47;916.83;;;7.00;99.90;;;;;;4984390;28;20042;-77
2023/12/13 02:26:00;;;;;;;1038.30;942.30;;;7.00;99.90;;;;;;4995345;28;20045;-77
2023/12/13 02:28:27;;;;;;;1009.88;921.90;;;7.00;99.90;;;;;;5008893;28;20107;-77
2023/12/13 02:30:55;;;;;;;1050.93;950.15;;;7.00;99.90;;;;;;4994384;28;20050;-76
2023/12/13 02:33:28;;;;;;;971.63;890.83;;;7.00;99.90;;;;;;5010372;28;20053;-77
2023/12/13 02:35:58;;;;;;;1029.40;934.67;;;7.00;99.90;;;;;;5011506;28;20069;-76
2023/12/13 02:38:24;;;;;;;1063.45;960.47;;;7.00;99.90;;;;;;5011490;28;20495;-76
2023/12/13 02:40:50;;;;;;;1050.90;951.57;;;7.00;99.90;;;;;;5010080;28;20077;-77
2023/12/13 02:43:16;;;;;;;1055.95;955.38;;;7.00;99.90;;;;;;4990652;28;20050;-77
2023/12/13 02:45:42;;;;;;;970.03;888.97;;;7.00;99.90;;;;;;5010923;28;20486;-77
2023/12/13 02:48:08;;;;;;;985.87;899.57;;;7.00;99.90;;;;;;4994890;28;20046;-77
2023/12/13 02:50:38;;;;;;;1057.57;958.30;;;7.00;99.90;;;;;;4989828;28;20045;-77
2023/12/13 02:53:04;;;;;;;1094.30;988.92;;;7.00;99.90;;;;;;5011644;28;20125;-77
2023/12/13 02:55:30;;;;;;;1038.60;941.58;;;7.00;99.90;;;;;;5011161;28;20045;-77
2023/12/13 02:57:56;;;;;;;1044.17;948.47;;;7.00;99.90;;;;;;4997149;28;20359;-77
2023/12/13 03:00:22;;;;;;;1040.17;947.00;;;7.00;99.90;;;;;;5010869;28;20163;-77
2023/12/13 03:02:47;;;;;;;979.40;898.17;;;7.00;99.90;;;;;;5011221;28;20624;-77
2023/12/13 03:05:13;;;;;;;1017.07;930.00;;;7.00;99.90;;;;;;4994876;28;20041;-77
2023/12/13 03:07:39;;;;;;;999.27;916.03;;;7.00;99.90;;;;;;4993249;28;20040;-77
2023/12/13 03:10:06;;;;;;;1048.47;949.33;;;7.00;99.90;;;;;;4994610;28;20150;-78
2023/12/13 03:12:31;;;;;;;999.25;914.15;;;7.00;99.90;;;;;;5010183;28;20041;-77
2023/12/13 03:14:57;;;;;;;1080.63;977.27;;;7.00;99.90;;;;;;5015621;28;20030;-77
2023/12/13 03:17:23;;;;;;;1018.30;929.97;;;7.00;99.90;;;;;;4993756;28;20485;-78
2023/12/13 03:19:48;;;;;;;985.73;900.03;;;7.00;99.90;;;;;;4992342;28;20038;-77
2023/12/13 03:22:14;;;;;;;1006.17;920.67;;;7.00;99.90;;;;;;4992018;28;20045;-77
2023/12/13 03:24:40;;;;;;;1074.53;977.43;;;7.00;99.90;;;;;;4992298;28;20041;-77
2023/12/13 03:27:06;;;;;;;1073.73;976.93;;;7.00;99.90;;;;;;5009842;28;20164;-77
2023/12/13 03:29:32;;;;;;;1010.60;924.83;;;7.00;99.90;;;;;;4994281;28;20045;-78
2023/12/13 03:31:58;;;;;;;1007.33;917.00;;;7.00;99.90;;;;;;4993242;28;20053;-78
2023/12/13 03:34:24;;;;;;;1002.40;918.37;;;7.00;99.90;;;;;;5010445;28;20399;-78
2023/12/13 03:36:50;;;;;;;1008.53;920.15;;;7.00;99.90;;;;;;5017371;28;20046;-78
2023/12/13 03:39:16;;;;;;;1031.73;942.03;;;7.00;99.90;;;;;;5010817;28;20037;-78
2023/12/13 03:41:41;;;;;;;968.37;888.27;;;7.00;99.90;;;;;;5012008;28;20096;-78
2023/12/13 03:44:07;;;;;;;1017.93;927.53;;;7.00;99.90;;;;;;4994071;28;20041;-76
2023/12/13 03:46:33;;;;;;;1003.50;919.37;;;7.00;99.90;;;;;;5010261;28;20500;-78
2023/12/13 03:48:58;;;;;;;977.13;892.93;;;7.00;99.90;;;;;;5010613;28;20081;-78
2023/12/13 03:51:24;;;;;;;1008.23;922.93;;;7.00;99.90;;;;;;4999132;28;20041;-78
2023/12/13 03:53:50;;;;;;;974.13;893.77;;;6.90;99.90;;;;;;5011183;28;20114;-78
2023/12/13 03:56:16;;;;;;;1017.57;928.37;;;6.90;99.90;;;;;;5009832;28;20069;-78
2023/12/13 03:58:41;;;;;;;994.30;909.40;;;6.90;99.90;;;;;;5013060;28;20092;-77
2023/12/13 04:01:08;;;;;;;1009.20;917.20;;;6.90;99.90;;;;;;5010583;28;20042;-78
2023/12/13 04:03:34;;;;;;;1005.22;922.92;;;6.90;99.90;;;;;;5010734;28;20052;-78
2023/12/13 04:06:00;;;;;;;1039.63;947.95;;;6.90;99.90;;;;;;5009172;28;20050;-78
2023/12/13 04:08:26;;;;;;;1025.43;934.10;;;6.90;99.90;;;;;;5019582;28;20508;-77
2023/12/13 04:10:52;;;;;;;1030.77;945.03;;;6.90;99.90;;;;;;5010231;28;20127;-78
2023/12/13 04:13:17;;;;;;;1068.33;969.13;;;6.90;99.90;;;;;;5014118;28;20041;-78
2023/12/13 04:15:43;;;;;;;1034.03;940.23;;;6.90;99.90;;;;;;4992905;28;20203;-77
2023/12/13 04:18:09;;;;;;;924.47;855.57;;;6.90;99.90;;;;;;5007262;28;20042;-78
2023/12/13 04:20:34;;;;;;;1041.33;950.17;;;6.90;99.90;;;;;;5010644;28;20053;-77
2023/12/13 04:23:00;;;;;;;1018.13;930.03;;;6.90;99.90;;;;;;5011345;28;20410;-78
2023/12/13 04:25:26;;;;;;;1028.20;940.30;;;6.90;99.90;;;;;;4995284;28;20046;-78
2023/12/13 04:27:51;;;;;;;993.00;905.40;;;6.90;99.90;;;;;;5011497;28;20445;-77
2023/12/13 04:30:17;;;;;;;1022.10;934.27;;;6.90;99.90;;;;;;5013948;28;20081;-78
2023/12/13 04:32:43;;;;;;;1011.70;925.30;;;6.90;99.90;;;;;;5023639;28;20490;-78
2023/12/13 04:35:09;;;;;;;1011.17;923.15;;;6.90;99.90;;;;;;5016532;28;20147;-78
2023/12/13 04:37:36;;;;;;;1012.15;923.55;;;6.90;99.90;;;;;;5018770;28;20045;-78
2023/12/13 04:40:03;;;;;;;1022.15;931.28;;;6.80;99.90;;;;;;5013258;28;20046;-78
2023/12/13 04:42:28;;;;;;;1009.72;920.58;;;6.80;99.90;;;;;;5015946;28;20052;-79
2023/12/13 04:44:54;;;;;;;979.40;900.77;;;6.80;99.90;;;;;;5002362;28;20045;-78
2023/12/13 04:47:20;;;;;;;1018.70;932.35;;;6.80;99.90;;;;;;5013475;28;20046;-78
2023/12/13 04:49:46;;;;;;;1007.23;920.90;;;6.80;99.90;;;;;;4992860;28;20511;-78
2023/12/13 04:52:12;;;;;;;980.20;896.37;;;6.80;99.90;;;;;;5007626;28;20045;-78
2023/12/13 04:54:37;;;;;;;968.17;887.37;;;6.70;99.90;;;;;;5013823;28;20042;-79
2023/12/13 04:57:04;;;;;;;1014.83;927.77;;;6.70;99.90;;;;;;5013337;28;20034;-78
2023/12/13 04:59:30;;;;;;;997.90;910.22;;;6.70;99.90;;;;;;5012912;28;20038;-77
2023/12/13 05:01:56;;;;;;;980.40;900.17;;;6.70;99.90;;;;;;4997705;28;20053;-78
2023/12/13 05:04:22;;;;;;;1011.33;925.47;;;6.70;99.90;;;;;;5013496;28;20132;-78
2023/12/13 05:06:47;;;;;;;1004.13;916.47;;;6.70;99.90;;;;;;5014568;28;20103;-78
2023/12/13 05:09:13;;;;;;;1028.93;941.10;;;6.70;99.90;;;;;;5013926;28;20457;-78
2023/12/13 05:11:39;;;;;;;1036.83;945.97;;;6.70;99.90;;;;;;5020089;28;20037;-78
2023/12/13 05:14:04;;;;;;;1012.43;924.30;;;6.70;99.90;;;;;;5019689;28;20041;-78
2023/12/13 05:16:30;;;;;;;1022.60;931.80;;;6.70;99.90;;;;;;5013046;28;20069;-78
2023/12/13 05:18:56;;;;;;;947.03;869.27;;;6.70;99.90;;;;;;4997439;28;20045;-78
2023/12/13 05:21:21;;;;;;;986.07;901.63;;;6.70;99.90;;;;;;5012767;28;20148;-78
2023/12/13 05:23:48;;;;;;;982.20;898.17;;;6.70;99.90;;;;;;5013238;28;20050;-78
2023/12/13 05:26:13;;;;;;;1034.53;941.83;;;6.70;99.90;;;;;;5013228;28;20038;-78
2023/12/13 05:28:39;;;;;;;967.80;890.40;;;6.70;99.90;;;;;;5012985;28;20042;-78
2023/12/13 05:31:05;;;;;;;993.50;905.77;;;6.70;99.90;;;;;;4995977;28;20411;-78
2023/12/13 05:33:30;;;;;;;967.53;889.03;;;6.70;99.90;;;;;;4984089;28;20073;-78
2023/12/13 05:35:57;;;;;;;1016.15;926.05;;;6.70;99.90;;;;;;5021023;28;20453;-79
2023/12/13 05:38:23;;;;;;;942.33;866.43;;;6.70;99.90;;;;;;4996181;28;20075;-78
2023/12/13 05:40:49;;;;;;;969.67;891.07;;;6.70;99.90;;;;;;5011865;28;20073;-78
2023/12/13 05:43:15;;;;;;;993.88;908.28;;;6.70;99.90;;;;;;5014294;28;20409;-78
2023/12/13 05:45:40;;;;;;;957.77;877.37;;;6.70;99.90;;;;;;5012520;28;20044;-78
2023/12/13 05:48:06;;;;;;;981.73;899.73;;;6.70;99.90;;;;;;4995291;28;20393;-79
2023/12/13 05:50:32;;;;;;;991.93;905.50;;;6.70;99.90;;;;;;4994145;28;20042;-77
2023/12/13 05:52:57;;;;;;;1033.77;942.80;;;6.70;99.90;;;;;;5009098;28;20126;-78
2023/12/13 05:55:23;;;;;;;951.37;877.23;;;6.70;99.90;;;;;;4995698;28;20462;-78
2023/12/13 05:57:49;;;;;;;1033.23;941.87;;;6.80;99.90;;;;;;5012144;28;20125;-78
2023/12/13 06:00:15;;;;;;;976.77;900.80;;;6.80;99.90;;;;;;5011332;28;20041;-77
2023/12/13 06:02:41;;;;;;;1023.78;933.42;;;6.80;99.90;;;;;;5008419;28;20544;-78
2023/12/13 06:05:07;;;;;;;973.60;891.77;;;6.70;99.90;;;;;;4995511;28;20066;-77
2023/12/13 06:07:33;;;;;;;993.72;906.58;;;6.80;99.90;;;;;;5011909;28;20120;-78
2023/12/13 06:09:58;;;;;;;1020.63;932.37;;;6.80;99.90;;;;;;5011680;28;20546;-78
2023/12/13 06:12:24;;;;;;;1010.43;925.77;;;6.80;99.90;;;;;;5005824;28;20056;-78
2023/12/13 06:14:50;;;;;;;992.03;910.70;;;6.80;99.90;;;;;;5011274;28;20044;-78
2023/12/13 06:17:16;;;;;;;993.47;910.23;;;6.80;99.90;;;;;;5010989;28;20498;-78
2023/12/13 06:19:41;;;;;;;978.77;897.20;;;6.80;99.90;;;;;;5010324;28;20122;-78
2023/12/13 06:22:07;;;;;;;1009.23;926.70;;;6.80;99.90;;;;;;5010377;28;20096;-77
2023/12/13 06:24:33;;;;;;;985.53;902.33;;;6.80;99.90;;;;;;5011679;28;20490;-78
2023/12/13 06:26:59;;;;;;;991.72;905.95;;;6.80;99.90;;;;;;5011560;28;20469;-78
2023/12/13 06:29:25;;;;;;;970.37;889.37;;;6.80;99.90;;;;;;4973650;28;20080;-78
2023/12/13 06:31:51;;;;;;;1015.90;928.90;;;6.80;99.90;;;;;;5008334;28;20133;-78
2023/12/13 06:34:17;;;;;;;1002.30;913.83;;;6.80;99.90;;;;;;4993881;28;20037;-77
2023/12/13 06:36:42;;;;;;;1026.07;936.40;;;6.80;99.90;;;;;;5008797;28;20133;-78
2023/12/13 06:39:11;;;;;;;1011.50;925.10;;;6.80;99.90;;;;;;5010049;28;20061;-78
2023/12/13 06:41:37;;;;;;;954.20;878.45;;;6.80;99.90;;;;;;5007352;28;20068;-78
2023/12/13 06:44:03;;;;;;;1005.70;919.92;;;6.80;99.90;;;;;;4993558;28;20085;-78
2023/12/13 06:46:29;;;;;;;948.33;869.97;;;6.80;99.90;;;;;;4992855;28;20081;-78
2023/12/13 06:48:55;;;;;;;960.78;882.05;;;6.80;99.90;;;;;;4993063;28;20285;-78
2023/12/13 06:51:21;;;;;;;963.67;885.00;;;6.80;99.90;;;;;;4990785;28;20091;-78
2023/12/13 06:53:47;;;;;;;969.03;886.43;;;6.80;99.90;;;;;;4993946;28;20275;-78
2023/12/13 06:56:13;;;;;;;1006.77;922.00;;;6.80;99.90;;;;;;4986041;28;20042;-77
2023/12/13 06:58:38;;;;;;;1014.60;928.73;;;6.80;99.90;;;;;;5011628;28;20516;-77
2023/12/13 07:01:05;;;;;;;1015.27;927.00;;;6.80;99.90;;;;;;5011592;28;20073;-78
2023/12/13 07:03:34;;;;;;;1031.60;939.65;;;6.80;99.90;;;;;;5012175;28;20042;-78
2023/12/13 07:06:04;;;;;;;1031.03;941.67;;;6.80;99.90;;;;;;5010271;28;20462;-77
2023/12/13 07:08:29;;;;;;;991.53;909.10;;;6.80;99.90;;;;;;5010795;28;20053;-77
2023/12/13 07:10:56;;;;;;;983.30;900.30;;;6.80;99.90;;;;;;5011035;28;20038;-77
2023/12/13 07:13:21;;;;;;;1002.25;913.45;;;6.80;99.90;;;;;;5010809;28;20038;-77
2023/12/13 07:15:47;;;;;;;1046.97;952.80;;;6.80;99.90;;;;;;4994329;28;20041;-77
2023/12/13 07:18:13;;;;;;;1013.07;922.17;;;6.80;99.90;;;;;;4994065;28;20069;-78
2023/12/13 07:20:38;;;;;;;969.10;886.97;;;6.80;99.90;;;;;;5009375;28;20108;-77
2023/12/13 07:23:05;;;;;;;1021.57;929.87;;;6.70;99.90;;;;;;4995865;28;20049;-77
2023/12/13 07:25:31;;;;;;;1020.00;930.85;;;6.80;99.90;;;;;;5011838;28;20041;-77
2023/12/13 07:27:57;;;;;;;953.30;875.10;;;6.70;99.90;;;;;;5010096;28;20117;-77
2023/12/13 07:30:23;;;;;;;1017.97;929.93;;;6.70;99.90;;;;;;4994338;28;20061;-77
2023/12/13 07:32:50;;;;;;;990.38;907.53;;;6.70;99.90;;;;;;4987456;28;20409;-77
2023/12/13 07:35:17;;;;;;;964.15;884.00;;;6.70;99.90;;;;;;4995971;28;20050;-77
2023/12/13 07:37:43;;;;;;;1001.50;916.28;;;6.70;99.90;;;;;;5003733;28;20081;-77
2023/12/13 07:40:09;;;;;;;988.73;907.83;;;6.70;99.90;;;;;;5010200;28;20069;-77
2023/12/13 07:42:35;;;;;;;978.17;895.47;;;6.70;99.90;;;;;;5010125;28;20132;-77
2023/12/13 07:45:00;;;;;;;999.87;916.10;;;6.70;99.90;;;;;;5006574;28;20084;-77
2023/12/13 07:47:26;;;;;;;1010.33;921.07;;;6.70;99.90;;;;;;4985405;28;20461;-77
2023/12/13 07:49:53;;;;;;;973.33;894.07;;;6.60;99.90;;;;;;5004664;28;20045;-77
2023/12/13 07:52:18;;;;;;;993.47;908.13;;;6.60;99.90;;;;;;5007960;28;20041;-77
2023/12/13 07:54:44;;;;;;;1000.03;915.53;;;6.60;99.90;;;;;;4993645;28;20066;-77
2023/12/13 07:57:10;;;;;;;1013.63;925.43;;;6.60;99.90;;;;;;5010226;28;20069;-77
2023/12/13 07:59:35;;;;;;;970.57;886.10;;;6.60;99.90;;;;;;4992827;28;20600;-77
2023/12/13 08:02:01;;;;;;;1027.53;938.60;;;6.60;99.90;;;;;;5007678;28;20149;-75
2023/12/13 08:04:27;;;;;;;977.83;897.23;;;6.60;99.90;;;;;;4998003;28;20049;-76
2023/12/13 08:06:53;;;;;;;1017.60;927.13;;;6.60;99.90;;;;;;5012455;28;20042;-75
2023/12/13 08:09:19;;;;;;;980.20;898.07;;;6.60;99.90;;;;;;4993338;28;20116;-76
2023/12/13 08:11:46;;;;;;;1035.20;940.60;;;6.60;99.90;;;;;;4993085;28;20053;-76
2023/12/13 08:14:16;;;;;;;1046.00;953.00;;;6.60;99.90;;;;;;4997198;28;20550;-76
2023/12/13 08:16:42;;;;;;;1054.20;954.28;;;6.70;99.90;;;;;;5014356;28;20128;-76
2023/12/13 08:19:08;;;;;;;1012.30;919.80;;;6.70;99.90;;;;;;5030415;28;20038;-76
2023/12/13 08:21:40;;;;;;;1004.15;917.30;;;6.70;99.90;;;;;;4997321;28;20502;-76
2023/12/13 08:24:10;;;;;;;961.80;880.97;;;6.70;99.90;;;;;;4995522;28;20179;-77
2023/12/13 08:26:35;;;;;;;1022.95;932.00;;;6.70;99.90;;;;;;4996505;28;20042;-77
2023/12/13 08:29:01;;;;;;;946.27;868.73;;;6.70;99.90;;;;;;5009923;28;20057;-77
2023/12/13 08:31:27;;;;;;;1005.00;915.10;;;6.70;99.90;;;;;;5012871;28;20053;-76
2023/12/13 08:33:52;;;;;;;972.23;889.93;;;6.70;99.90;;;;;;4997216;28;20036;-77
2023/12/13 08:36:18;;;;;;;1038.60;942.20;;;6.80;99.90;;;;;;5013015;28;20030;-77
2023/12/13 08:38:45;;;;;;;1021.10;925.33;;;6.80;99.90;;;;;;5012602;28;20037;-77
2023/12/13 08:41:13;;;;;;;981.15;900.30;;;6.80;99.90;;;;;;5014343;28;20108;-77
2023/12/13 08:43:39;;;;;;;963.87;883.03;;;6.90;99.90;;;;;;4992494;28;20042;-77
2023/12/13 08:46:05;;;;;;;965.77;883.90;;;6.90;99.90;;;;;;5012728;28;20322;-77
2023/12/13 08:48:31;;;;;;;1019.70;931.27;;;6.90;99.90;;;;;;4993469;28;20077;-77
2023/12/13 08:50:57;;;;;;;990.83;905.20;;;7.00;99.90;;;;;;4993817;28;20042;-77
2023/12/13 08:53:24;;;;;;;1084.10;978.67;;;7.00;99.90;;;;;;4996659;28;20683;-77
2023/12/13 08:55:49;;;;;;;1007.72;920.17;;;7.00;99.90;;;;;;5011776;28;20070;-77
2023/12/13 08:58:15;;;;;;;960.87;880.93;;;7.10;99.90;;;;;;4994788;28;20081;-77
2023/12/13 09:00:41;;;;;;;1043.53;944.73;;;7.10;99.90;;;;;;4997105;28;20029;-77
2023/12/13 09:03:08;;;;;;;1013.57;918.93;;;7.10;99.90;;;;;;5013431;28;20100;-77
2023/12/13 09:05:35;;;;;;;1037.95;944.00;;;7.10;99.90;;;;;;5013143;28;20050;-77
2023/12/13 09:08:00;;;;;;;1025.78;925.10;;;7.10;99.90;;;;;;5013084;28;20042;-77
2023/12/13 09:10:26;;;;;;;1032.50;938.43;;;7.10;99.90;;;;;;5012916;28;20068;-77
2023/12/13 09:12:52;;;;;;;1038.40;943.97;;;7.10;99.90;;;;;;5015647;28;20037;-78
2023/12/13 09:15:18;;;;;;;1002.20;913.60;;;7.20;99.90;;;;;;5012678;28;20041;-78
2023/12/13 09:17:45;;;;;;;949.73;873.10;;;7.20;99.90;;;;;;4997010;28;20073;-77
2023/12/13 09:20:14;;;;;;;1016.17;926.03;;;7.20;99.90;;;;;;5012573;28;20034;-77
2023/12/13 09:22:44;;;;;;;1061.28;960.80;;;7.20;99.90;;;;;;5013505;28;20289;-78
2023/12/13 09:25:16;;;;;;;1019.92;924.72;;;7.20;99.90;;;;;;4993343;28;20057;-78
2023/12/13 09:27:43;;;;;;;1002.13;914.17;;;7.20;99.90;;;;;;5013137;28;20042;-78
2023/12/13 09:30:09;;;;;;;972.28;888.58;;;7.20;99.90;;;;;;5011786;28;20046;-77
2023/12/13 09:32:35;;;;;;;1057.05;954.33;;;7.30;99.90;;;;;;5011778;28;20073;-77
2023/12/13 09:35:01;;;;;;;989.57;904.63;;;7.30;99.90;;;;;;5011574;28;20489;-77
2023/12/13 09:37:27;;;;;;;1020.72;930.92;;;7.40;99.90;;;;;;5012934;28;20037;-77
2023/12/13 09:39:53;;;;;;;1019.42;929.38;;;7.40;99.90;;;;;;4996433;28;20042;-77
2023/12/13 09:42:19;;;;;;;1003.53;918.07;;;7.40;99.90;;;;;;4998614;28;20409;-77
2023/12/13 09:44:49;;;;;;;1018.53;928.50;;;7.40;99.90;;;;;;4996317;28;20053;-77
2023/12/13 09:47:16;;;;;;;1034.07;938.83;;;7.50;99.90;;;;;;4996794;28;20517;-76
2023/12/13 09:49:43;;;;;;;1056.73;959.60;;;7.50;99.90;;;;;;4990644;28;20296;-76
2023/12/13 09:52:09;;;;;;;999.17;914.37;;;7.50;99.90;;;;;;5027079;28;20309;-75
2023/12/13 09:54:40;;;;;;;1033.47;942.53;;;7.60;99.90;;;;;;5012142;28;20342;-76
2023/12/13 09:57:06;;;;;;;1037.30;942.20;;;7.60;99.90;;;;;;5012628;28;20396;-76
2023/12/13 09:59:32;;;;;;;1050.67;950.43;;;7.70;99.90;;;;;;5010599;28;20379;-76
2023/12/13 10:01:58;;;;;;;1086.87;987.80;;;7.80;99.90;;;;;;4996291;28;20041;-77
2023/12/13 10:04:28;;;;;;;1033.50;941.33;;;7.80;99.90;;;;;;4997202;28;20121;-76
2023/12/13 10:06:54;;;;;;;1043.47;948.97;;;7.80;99.90;;;;;;4995434;28;20296;-75
2023/12/13 10:09:20;;;;;;;1051.33;957.50;;;7.90;99.90;;;;;;5012127;28;20301;-75
2023/12/13 10:11:46;;;;;;;1003.93;919.83;;;7.90;99.90;;;;;;4995565;28;20305;-75
2023/12/13 10:14:12;;;;;;;1084.00;978.87;;;7.90;99.90;;;;;;4999757;28;20450;-75
2023/12/13 10:16:41;;;;;;;1057.13;956.47;;;8.00;99.90;;;;;;5011234;28;20374;-76
2023/12/13 10:19:07;;;;;;;1084.60;984.30;;;8.00;99.90;;;;;;4994858;28;20277;-76
2023/12/13 10:21:37;;;;;;;1104.60;993.77;;;8.10;99.90;;;;;;5012193;28;20637;-76
2023/12/13 10:24:06;;;;;;;1138.43;999.90;;;8.10;99.90;;;;;;5011214;28;20044;-76
2023/12/13 10:26:35;;;;;;;1105.20;995.30;;;8.10;99.90;;;;;;5011341;28;20664;-76
2023/12/13 10:29:02;;;;;;;1074.47;973.93;;;8.20;99.90;;;;;;4984522;28;20784;-77
2023/12/13 10:31:30;;;;;;;1077.20;977.80;;;8.20;99.90;;;;;;4994475;28;20321;-77
2023/12/13 10:33:56;;;;;;;1068.77;970.23;;;8.20;99.90;;;;;;5012116;28;20292;-77
2023/12/13 10:36:25;;;;;;;1089.57;983.13;;;8.20;99.90;;;;;;5011524;28;20281;-77
2023/12/13 10:38:53;;;;;;;1107.77;996.30;;;8.20;99.90;;;;;;5011575;28;20277;-77
2023/12/13 10:41:25;;;;;;;1027.77;938.93;;;8.20;99.90;;;;;;5003259;28;20354;-77
2023/12/13 10:43:56;;;;;;;1063.07;963.77;;;8.20;99.90;;;;;;5013868;28;20289;-77
2023/12/13 10:46:25;;;;;;;1046.00;955.20;;;8.20;99.90;;;;;;5010266;28;20293;-77
2023/12/13 10:48:52;;;;;;;1070.70;973.13;;;8.20;99.90;;;;;;5011666;28;20292;-77
2023/12/13 10:51:19;;;;;;;1070.83;973.90;;;8.20;99.90;;;;;;4990413;28;20362;-77
2023/12/13 10:53:47;;;;;;;1043.17;954.27;;;8.20;99.90;;;;;;5012167;28;20316;-77
2023/12/13 10:56:14;;;;;;;1075.17;976.37;;;8.20;99.90;;;;;;5011486;28;20280;-77
2023/12/13 10:58:41;;;;;;;1020.63;933.03;;;8.30;99.90;;;;;;5011585;28;20355;-77
2023/12/13 11:01:07;;;;;;;1057.40;962.83;;;8.30;99.90;;;;;;5010219;28;20649;-77
2023/12/13 11:03:47;;;;;;;1056.03;961.60;;;8.30;99.90;;;;;;5011416;28;20288;-77
2023/12/13 11:06:16;;;;;;;1113.07;998.47;;;8.30;99.90;;;;;;5017567;28;20288;-77
2023/12/13 11:08:46;;;;;;;1053.57;958.30;;;8.30;99.90;;;;;;5011067;28;20281;-77
2023/12/13 11:11:14;;;;;;;1063.50;966.77;;;8.30;99.90;;;;;;4986598;28;20412;-77
2023/12/13 11:13:53;;;;;;;1092.17;986.87;;;8.30;99.90;;;;;;5013423;28;20291;-77
2023/12/13 11:16:24;;;;;;;1029.97;938.43;;;8.30;99.90;;;;;;4995093;28;20327;-77
2023/12/13 11:18:52;;;;;;;1064.37;967.37;;;8.30;99.90;;;;;;5008751;28;20898;-77
2023/12/13 11:21:23;;;;;;;1034.27;944.23;;;8.30;99.90;;;;;;4994359;28;20300;-77
2023/12/13 11:23:49;;;;;;;1069.57;971.67;;;8.30;99.90;;;;;;5010155;28;20370;-77
2023/12/13 11:26:15;;;;;;;1059.13;964.07;;;8.40;99.90;;;;;;5011014;28;20309;-77
2023/12/13 11:28:52;;;;;;;999.37;915.20;;;8.40;99.90;;;;;;5010865;28;20049;-76
2023/12/13 11:31:22;;;;;;;1070.77;968.40;;;8.40;99.90;;;;;;5010399;28;20312;-76
2023/12/13 11:33:56;;;;;;;1060.73;964.57;;;8.50;99.90;;;;;;5001184;28;20265;-77
2023/12/13 11:36:23;;;;;;;1071.07;972.93;;;8.50;99.90;;;;;;4994147;28;20292;-77
2023/12/13 11:38:50;;;;;;;1058.93;962.40;;;8.50;99.90;;;;;;4994547;28;20273;-78
2023/12/13 11:41:17;;;;;;;1095.60;992.63;;;8.50;99.90;;;;;;4995776;28;20802;-77
2023/12/13 11:43:46;;;;;;;1099.87;993.27;;;8.50;99.90;;;;;;5014557;28;20287;-77
2023/12/13 11:46:13;;;;;;;1093.30;990.37;;;8.50;99.90;;;;;;5012116;28;20300;-77
2023/12/13 11:48:39;;;;;;;1029.93;940.50;;;8.50;99.90;;;;;;5013009;28;20780;-77
2023/12/13 11:51:05;;;;;;;972.20;893.67;;;8.50;99.90;;;;;;5000705;28;20305;-77
2023/12/13 11:53:32;;;;;;;1034.60;949.03;;;8.50;99.90;;;;;;4994044;28;20288;-77
2023/12/13 11:55:58;;;;;;;1033.47;943.93;;;8.50;99.90;;;;;;5013250;28;20030;-77
2023/12/13 11:58:28;;;;;;;971.60;895.63;;;8.50;99.90;;;;;;4994095;28;20379;-77
2023/12/13 12:00:54;;;;;;;1001.30;919.10;;;8.50;99.90;;;;;;5009909;28;20868;-76
2023/12/13 12:03:20;;;;;;;1044.57;952.40;;;8.50;99.90;;;;;;4992262;28;20367;-78
2023/12/13 12:05:47;;;;;;;1000.93;917.67;;;8.50;99.90;;;;;;4993221;28;20053;-77
2023/12/13 12:08:12;;;;;;;1041.57;951.93;;;8.40;99.90;;;;;;5010681;28;20042;-77